Impacts TAF Board
For situational awareness. Not to be used for flight planning purposes.
IDs:

KPHL - Philadelphia Intl, PA, US

Issued at 0528 UTC 03 Jul 2022
Updated at 0547 UTC 03 Jul 2022
Potential Impact None Slight Moderate High
Time0454Z 03/06Z 03/07Z 03/08Z 03/09Z 03/10Z 03/11Z 03/12Z 03/13Z 03/14Z 03/15Z 03/16Z 03/17Z 03/18Z>>
Type OBS PRVL PRVL PRVL PRVL PRVL PRVL PRVL PRVL PRVL PRVL PRVL PRVL PRVL
VIS 10 >6 >6 >6 >6 >6 >6 >6 >6 >6 >6 >6 >6 >6
CIG 120 80 80 80 80 50 50 50 50 50 250 250 250 250
Cover BKN BKN BKN BKN BKN BKN BKN BKN BKN BKN BKN BKN BKN BKN
FltCat VFR VFR VFR VFR VFR VFR VFR VFR VFR VFR VFR VFR VFR VFR
WX -- VCSH VCSH VCSH VCSH -- -- -- -- -- -- -- -- --
WDir 250 260 260 260 260 320 320 320 320 320 350 350 350 350
WSpd 7 6 6 6 6 6 6 6 6 6 8 8 8 8
WGst -- -- -- -- -- -- -- -- -- -- -- -- -- --
WSHgt -- -- -- -- -- -- -- -- -- -- -- -- -- --
WSDir -- -- -- -- -- -- -- -- -- -- -- -- -- --
WSSpd -- -- -- -- -- -- -- -- -- -- -- -- -- --
Raw TAF
KPHL 030528Z 0306/0412 26006KT P6SM VCSH BKN080
  FM031000 32006KT P6SM BKN050
  FM031500 35008KT P6SM BKN250
  FM032200 32005KT P6SM SKC


Raw METAR
KPHL 030454Z 25007KT 10SM SCT085 BKN120 24/22 A2995 RMK AO2 RAE51 SLP142 P0000 T02390222 403440239 $
KPHL 030354Z 27009KT 10SM -RA FEW045 SCT085 BKN100 24/22 A2997 RMK AO2 TSE04B07E09E22 SLP148 P0002 T02440217 $
KPHL 030323Z 25012KT 10SM -RA FEW045 SCT085CB BKN100 25/22 A2997 RMK AO2 LTG DSNT S TSE04B07E09E22 OCNL LTGICCC DSNT S MOV E TS DSNT S MOV E P0001 T02500222 $
KPHL 030311Z 25016KT 10SM -TSRA FEW045 SCT085CB BKN100 26/22 A2997 RMK AO2 LTG DSNT S TSE04B07E09 OCNL LTG OHD TS OHD MOV E P0000 T02560222 $
KPHL 030259Z 26011KT 10SM -TSRA FEW045 SCT085CB BKN100 26/21 A2998 RMK AO2 LTG DSNT S OCNL LTG OHD TS OHD MOV E P0000 T02560211 $
KPHL 030254Z 25010KT 10SM -TSRA FEW045 SCT085CB BKN100 26/21 A2997 RMK AO2 LTG DSNT S AND SW RAB54 TSB54 SLP147 CB DSNT SW MOV E P0000 60000 T02560211 53012 $

METAR Board
Radar Display
Forecast Discussion
For situational awareness. Not to be used for flight planning purposes.